sensor_id;sensor_type;location;lat;lon;timestamp;pressure;altitude;pressure_sealevel;temperature;humidity
31717;BME280;18301;51.076;17.046;2023-02-21T00:02:28;99577.34;;;10.39;73.85
31717;BME280;18301;51.076;17.046;2023-02-21T00:07:49;99579.16;;;10.28;74.74
31717;BME280;18301;51.076;17.046;2023-02-21T00:13:09;99583.88;;;10.57;73.80
31717;BME280;18301;51.076;17.046;2023-02-21T00:18:36;99576.88;;;10.33;74.76
31717;BME280;18301;51.076;17.046;2023-02-21T00:23:56;99574.19;;;10.33;75.18
31717;BME280;18301;51.076;17.046;2023-02-21T00:29:16;99583.34;;;10.42;74.59
31717;BME280;18301;51.076;17.046;2023-02-21T00:34:36;99568.69;;;10.35;75.39
31717;BME280;18301;51.076;17.046;2023-02-21T00:39:56;99562.19;;;10.38;75.50
31717;BME280;18301;51.076;17.046;2023-02-21T00:45:16;99576.38;;;10.40;75.60
31717;BME280;18301;51.076;17.046;2023-02-21T00:50:36;99580.53;;;10.44;75.77
31717;BME280;18301;51.076;17.046;2023-02-21T00:55:56;99585.63;;;10.26;77.07
31717;BME280;18301;51.076;17.046;2023-02-21T01:01:16;99592.28;;;10.43;76.43
31717;BME280;18301;51.076;17.046;2023-02-21T01:06:37;99590.38;;;10.33;77.07
31717;BME280;18301;51.076;17.046;2023-02-21T01:11:57;99579.38;;;10.25;78.00
31717;BME280;18301;51.076;17.046;2023-02-21T01:17:17;99572.97;;;10.38;77.79
31717;BME280;18301;51.076;17.046;2023-02-21T01:22:37;99561.38;;;10.47;77.38
31717;BME280;18301;51.076;17.046;2023-02-21T01:27:57;99556.25;;;10.44;77.68
31717;BME280;18301;51.076;17.046;2023-02-21T01:33:17;99559.19;;;10.20;79.23
31717;BME280;18301;51.076;17.046;2023-02-21T01:38:38;99557.13;;;10.12;79.93
31717;BME280;18301;51.076;17.046;2023-02-21T01:49:18;99587.13;;;9.98;82.08
31717;BME280;18301;51.076;17.046;2023-02-21T01:54:45;99559.28;;;9.97;82.21
31717;BME280;18301;51.076;17.046;2023-02-21T02:00:09;99568.91;;;10.11;81.37
31717;BME280;18301;51.076;17.046;2023-02-21T02:05:30;99563.44;;;10.01;82.38
31717;BME280;18301;51.076;17.046;2023-02-21T02:11:00;99550.56;;;10.26;81.23
31717;BME280;18301;51.076;17.046;2023-02-21T02:38:02;99527.22;;;10.15;82.15
31717;BME280;18301;51.076;17.046;2023-02-21T02:48:40;99524.38;;;9.96;83.00
31717;BME280;18301;51.076;17.046;2023-02-21T02:53:43;99518.00;;;9.97;83.03
31717;BME280;18301;51.076;17.046;2023-02-21T02:59:08;99506.78;;;9.91;83.19
31717;BME280;18301;51.076;17.046;2023-02-21T03:15:04;99515.50;;;9.84;84.36
31717;BME280;18301;51.076;17.046;2023-02-21T03:20:09;99494.94;;;10.04;83.38
31717;BME280;18301;51.076;17.046;2023-02-21T03:25:13;99515.13;;;9.88;83.77
31717;BME280;18301;51.076;17.046;2023-02-21T03:30:17;99514.59;;;10.36;81.91
31717;BME280;18301;51.076;17.046;2023-02-21T03:35:19;99518.09;;;10.27;81.84
31717;BME280;18301;51.076;17.046;2023-02-21T03:40:24;99525.03;;;10.09;83.18
31717;BME280;18301;51.076;17.046;2023-02-21T03:45:26;99509.53;;;10.22;83.09
31717;BME280;18301;51.076;17.046;2023-02-21T03:50:28;99508.34;;;10.15;82.79
31717;BME280;18301;51.076;17.046;2023-02-21T03:55:29;99513.47;;;10.18;82.98
31717;BME280;18301;51.076;17.046;2023-02-21T04:00:31;99510.34;;;10.13;83.49
31717;BME280;18301;51.076;17.046;2023-02-21T04:05:32;99516.50;;;10.04;84.02
31717;BME280;18301;51.076;17.046;2023-02-21T04:10:34;99517.28;;;10.36;81.93
31717;BME280;18301;51.076;17.046;2023-02-21T04:15:47;99529.13;;;10.24;82.88
31717;BME280;18301;51.076;17.046;2023-02-21T04:20:48;99531.81;;;10.24;82.49
31717;BME280;18301;51.076;17.046;2023-02-21T04:25:51;99539.78;;;10.05;83.54
31717;BME280;18301;51.076;17.046;2023-02-21T04:30:52;99542.16;;;10.19;83.05
31717;BME280;18301;51.076;17.046;2023-02-21T04:35:53;99542.84;;;10.32;82.41
31717;BME280;18301;51.076;17.046;2023-02-21T04:40:55;99538.94;;;10.25;82.18
31717;BME280;18301;51.076;17.046;2023-02-21T04:45:56;99544.84;;;10.19;82.58
31717;BME280;18301;51.076;17.046;2023-02-21T04:50:58;99546.59;;;10.09;83.87
31717;BME280;18301;51.076;17.046;2023-02-21T04:56:17;99534.38;;;10.05;85.46
31717;BME280;18301;51.076;17.046;2023-02-21T05:01:19;99541.09;;;9.89;87.95
31717;BME280;18301;51.076;17.046;2023-02-21T05:06:23;99534.06;;;9.66;89.99
31717;BME280;18301;51.076;17.046;2023-02-21T05:11:26;99554.34;;;9.81;89.58
31717;BME280;18301;51.076;17.046;2023-02-21T05:16:28;99539.13;;;9.91;89.12
31717;BME280;18301;51.076;17.046;2023-02-21T05:21:33;99532.78;;;9.81;90.17
31717;BME280;18301;51.076;17.046;2023-02-21T05:26:36;99536.13;;;9.74;90.21
31717;BME280;18301;51.076;17.046;2023-02-21T05:31:38;99531.69;;;9.52;92.33
31717;BME280;18301;51.076;17.046;2023-02-21T05:36:40;99527.75;;;9.56;90.92
31717;BME280;18301;51.076;17.046;2023-02-21T05:41:47;99541.19;;;9.67;90.87
31717;BME280;18301;51.076;17.046;2023-02-21T05:46:48;99551.19;;;9.76;89.09
31717;BME280;18301;51.076;17.046;2023-02-21T05:51:49;99530.31;;;9.89;88.68
31717;BME280;18301;51.076;17.046;2023-02-21T05:56:51;99545.94;;;9.96;87.77
31717;BME280;18301;51.076;17.046;2023-02-21T06:01:53;99549.47;;;9.75;89.55
31717;BME280;18301;51.076;17.046;2023-02-21T06:06:55;99555.25;;;9.71;90.16
31717;BME280;18301;51.076;17.046;2023-02-21T06:11:57;99566.16;;;10.01;88.18
31717;BME280;18301;51.076;17.046;2023-02-21T06:16:59;99569.13;;;9.87;89.08
31717;BME280;18301;51.076;17.046;2023-02-21T06:22:01;99588.78;;;10.10;88.67
31717;BME280;18301;51.076;17.046;2023-02-21T06:27:02;99586.22;;;9.76;91.52
31717;BME280;18301;51.076;17.046;2023-02-21T06:32:04;99583.78;;;9.73;92.41
31717;BME280;18301;51.076;17.046;2023-02-21T06:37:05;99592.56;;;9.75;93.03
31717;BME280;18301;51.076;17.046;2023-02-21T06:42:12;99593.63;;;9.52;95.12
31717;BME280;18301;51.076;17.046;2023-02-21T06:47:14;99600.72;;;9.64;95.00
31717;BME280;18301;51.076;17.046;2023-02-21T06:52:15;99607.88;;;9.75;93.90
31717;BME280;18301;51.076;17.046;2023-02-21T06:57:17;99610.97;;;9.70;94.37
31717;BME280;18301;51.076;17.046;2023-02-21T07:02:19;99611.91;;;9.80;94.44
31717;BME280;18301;51.076;17.046;2023-02-21T07:07:20;99619.22;;;9.89;93.56
31717;BME280;18301;51.076;17.046;2023-02-21T07:12:22;99615.59;;;9.79;94.59
31717;BME280;18301;51.076;17.046;2023-02-21T07:17:23;99627.53;;;9.98;92.60
31717;BME280;18301;51.076;17.046;2023-02-21T07:22:25;99621.56;;;10.15;91.50
31717;BME280;18301;51.076;17.046;2023-02-21T07:27:27;99628.69;;;10.16;91.82
31717;BME280;18301;51.076;17.046;2023-02-21T07:32:28;99630.31;;;10.40;90.12
31717;BME280;18301;51.076;17.046;2023-02-21T07:37:30;99633.84;;;10.40;90.23
31717;BME280;18301;51.076;17.046;2023-02-21T07:42:32;99634.91;;;10.28;91.02
31717;BME280;18301;51.076;17.046;2023-02-21T07:47:33;99646.75;;;10.36;90.77
31717;BME280;18301;51.076;17.046;2023-02-21T07:52:35;99645.03;;;10.35;90.64
31717;BME280;18301;51.076;17.046;2023-02-21T07:57:36;99654.78;;;10.48;89.40
31717;BME280;18301;51.076;17.046;2023-02-21T08:02:37;99671.88;;;10.58;89.12
31717;BME280;18301;51.076;17.046;2023-02-21T08:07:39;99675.66;;;10.67;88.42
31717;BME280;18301;51.076;17.046;2023-02-21T08:12:40;99663.22;;;10.54;89.17
31717;BME280;18301;51.076;17.046;2023-02-21T08:17:42;99668.06;;;10.40;89.26
31717;BME280;18301;51.076;17.046;2023-02-21T08:22:44;99664.91;;;10.76;87.22
31717;BME280;18301;51.076;17.046;2023-02-21T08:27:45;99669.34;;;10.56;88.75
31717;BME280;18301;51.076;17.046;2023-02-21T08:32:48;99661.94;;;10.79;87.97
31717;BME280;18301;51.076;17.046;2023-02-21T08:37:51;99668.19;;;10.59;89.22
31717;BME280;18301;51.076;17.046;2023-02-21T08:42:58;99678.47;;;10.65;89.24
31717;BME280;18301;51.076;17.046;2023-02-21T08:48:00;99688.28;;;10.66;88.35
31717;BME280;18301;51.076;17.046;2023-02-21T08:53:02;99661.63;;;10.52;90.13
31717;BME280;18301;51.076;17.046;2023-02-21T08:58:03;99692.91;;;10.75;88.31
31717;BME280;18301;51.076;17.046;2023-02-21T09:03:05;99691.31;;;10.94;87.42
31717;BME280;18301;51.076;17.046;2023-02-21T09:08:06;99679.59;;;11.14;86.75
31717;BME280;18301;51.076;17.046;2023-02-21T09:13:10;99684.84;;;11.06;86.80
31717;BME280;18301;51.076;17.046;2023-02-21T09:18:12;99683.13;;;11.05;86.45
31717;BME280;18301;51.076;17.046;2023-02-21T09:23:13;99676.47;;;11.09;85.36
31717;BME280;18301;51.076;17.046;2023-02-21T09:28:16;99684.75;;;11.17;84.77
31717;BME280;18301;51.076;17.046;2023-02-21T09:33:17;99711.22;;;11.23;83.70
31717;BME280;18301;51.076;17.046;2023-02-21T09:38:19;99693.66;;;11.39;83.49
31717;BME280;18301;51.076;17.046;2023-02-21T09:43:33;99701.41;;;11.22;84.67
31717;BME280;18301;51.076;17.046;2023-02-21T09:48:35;99705.09;;;11.52;82.69
31717;BME280;18301;51.076;17.046;2023-02-21T09:53:46;99688.91;;;11.62;81.95
31717;BME280;18301;51.076;17.046;2023-02-21T09:58:48;99721.38;;;11.71;81.69
31717;BME280;18301;51.076;17.046;2023-02-21T10:04:15;99736.03;;;12.09;80.17
31717;BME280;18301;51.076;17.046;2023-02-21T10:09:24;99727.66;;;11.82;80.44
31717;BME280;18301;51.076;17.046;2023-02-21T10:15:33;99751.56;;;11.77;80.00
31717;BME280;18301;51.076;17.046;2023-02-21T10:20:14;99747.59;;;11.81;80.65
31717;BME280;18301;51.076;17.046;2023-02-21T10:25:27;99745.59;;;12.13;78.55
31717;BME280;18301;51.076;17.046;2023-02-21T10:30:34;99747.09;;;11.96;79.29
31717;BME280;18301;51.076;17.046;2023-02-21T10:35:37;99770.66;;;11.85;78.04
31717;BME280;18301;51.076;17.046;2023-02-21T10:40:41;99746.06;;;11.57;80.06
31717;BME280;18301;51.076;17.046;2023-02-21T10:45:54;99767.66;;;11.26;82.99
31717;BME280;18301;51.076;17.046;2023-02-21T10:51:28;99780.53;;;11.13;88.05
31717;BME280;18301;51.076;17.046;2023-02-21T10:56:30;99759.28;;;11.29;86.95
31717;BME280;18301;51.076;17.046;2023-02-21T11:06:37;99772.69;;;11.10;90.22
31717;BME280;18301;51.076;17.046;2023-02-21T11:11:40;99777.75;;;11.24;91.35
31717;BME280;18301;51.076;17.046;2023-02-21T11:16:42;99773.31;;;11.44;89.80
31717;BME280;18301;51.076;17.046;2023-02-21T11:21:54;99762.88;;;11.61;89.77
31717;BME280;18301;51.076;17.046;2023-02-21T11:26:56;99775.97;;;11.65;88.61
31717;BME280;18301;51.076;17.046;2023-02-21T11:31:58;99760.75;;;11.95;85.29
31717;BME280;18301;51.076;17.046;2023-02-21T11:37:09;99778.25;;;12.01;84.60
31717;BME280;18301;51.076;17.046;2023-02-21T11:42:27;99751.34;;;11.89;79.15
31717;BME280;18301;51.076;17.046;2023-02-21T11:47:37;99769.94;;;11.83;80.35
31717;BME280;18301;51.076;17.046;2023-02-21T11:52:45;99779.75;;;11.84;81.02
31717;BME280;18301;51.076;17.046;2023-02-21T11:58:22;99778.97;;;11.93;81.77
31717;BME280;18301;51.076;17.046;2023-02-21T12:03:56;99779.84;;;12.03;82.08
31717;BME280;18301;51.076;17.046;2023-02-21T12:25:17;99773.72;;;12.01;77.63
31717;BME280;18301;51.076;17.046;2023-02-21T12:36:38;99771.25;;;12.38;73.80
31717;BME280;18301;51.076;17.046;2023-02-21T12:53:06;99773.13;;;12.77;71.41
31717;BME280;18301;51.076;17.046;2023-02-21T13:03:32;99773.09;;;12.38;70.16
31717;BME280;18301;51.076;17.046;2023-02-21T13:08:51;99775.75;;;12.18;71.37
31717;BME280;18301;51.076;17.046;2023-02-21T13:13:55;99777.22;;;12.23;70.68
31717;BME280;18301;51.076;17.046;2023-02-21T13:19:02;99764.25;;;12.36;69.54
31717;BME280;18301;51.076;17.046;2023-02-21T13:29:44;99772.66;;;12.23;69.23
31717;BME280;18301;51.076;17.046;2023-02-21T13:34:55;99786.44;;;12.10;69.25
31717;BME280;18301;51.076;17.046;2023-02-21T13:40:11;99785.06;;;12.45;68.43
31717;BME280;18301;51.076;17.046;2023-02-21T13:45:20;99792.13;;;12.17;69.09
31717;BME280;18301;51.076;17.046;2023-02-21T14:06:36;99779.38;;;12.48;68.29
31717;BME280;18301;51.076;17.046;2023-02-21T14:11:43;99782.25;;;12.56;68.39
31717;BME280;18301;51.076;17.046;2023-02-21T14:16:48;99784.78;;;12.58;68.17
31717;BME280;18301;51.076;17.046;2023-02-21T14:22:19;99774.25;;;12.64;70.42
31717;BME280;18301;51.076;17.046;2023-02-21T14:32:34;99795.63;;;12.58;72.12
31717;BME280;18301;51.076;17.046;2023-02-21T14:37:40;99779.00;;;12.12;73.21
31717;BME280;18301;51.076;17.046;2023-02-21T14:42:53;99782.50;;;12.43;72.70
31717;BME280;18301;51.076;17.046;2023-02-21T14:53:46;99795.75;;;12.47;73.08
31717;BME280;18301;51.076;17.046;2023-02-21T15:04:42;99807.16;;;12.60;71.25
31717;BME280;18301;51.076;17.046;2023-02-21T15:15:15;99803.59;;;12.00;70.96
31717;BME280;18301;51.076;17.046;2023-02-21T15:20:18;99817.91;;;12.21;68.50
31717;BME280;18301;51.076;17.046;2023-02-21T15:25:19;99806.31;;;12.00;69.10
31717;BME280;18301;51.076;17.046;2023-02-21T15:30:39;99834.63;;;11.74;70.51
31717;BME280;18301;51.076;17.046;2023-02-21T15:40:51;99836.22;;;12.08;70.64
31717;BME280;18301;51.076;17.046;2023-02-21T15:45:58;99833.66;;;12.06;71.62
31717;BME280;18301;51.076;17.046;2023-02-21T15:51:04;99832.84;;;12.15;71.66
31717;BME280;18301;51.076;17.046;2023-02-21T15:56:23;99839.84;;;11.87;72.41
31717;BME280;18301;51.076;17.046;2023-02-21T16:01:25;99831.72;;;11.66;73.08
31717;BME280;18301;51.076;17.046;2023-02-21T16:06:28;99857.63;;;11.69;71.66
31717;BME280;18301;51.076;17.046;2023-02-21T16:11:54;99867.00;;;11.44;73.04
31717;BME280;18301;51.076;17.046;2023-02-21T16:22:26;99865.97;;;11.35;73.48
31717;BME280;18301;51.076;17.046;2023-02-21T16:27:28;99888.75;;;11.21;73.82
31717;BME280;18301;51.076;17.046;2023-02-21T16:32:30;99893.00;;;11.03;74.21
31717;BME280;18301;51.076;17.046;2023-02-21T16:37:32;99899.06;;;11.16;73.02
31717;BME280;18301;51.076;17.046;2023-02-21T16:42:33;99901.47;;;10.98;72.17
31717;BME280;18301;51.076;17.046;2023-02-21T16:47:35;99920.53;;;10.86;72.37
31717;BME280;18301;51.076;17.046;2023-02-21T16:52:36;99937.50;;;10.65;73.28
31717;BME280;18301;51.076;17.046;2023-02-21T16:57:38;99937.97;;;10.81;72.47
31717;BME280;18301;51.076;17.046;2023-02-21T17:02:39;99956.38;;;10.76;72.52
31717;BME280;18301;51.076;17.046;2023-02-21T17:07:41;99973.06;;;10.59;73.32
31717;BME280;18301;51.076;17.046;2023-02-21T17:12:42;99978.22;;;10.73;73.21
31717;BME280;18301;51.076;17.046;2023-02-21T17:17:44;99992.59;;;10.63;74.00
31717;BME280;18301;51.076;17.046;2023-02-21T17:22:53;99991.09;;;10.58;74.26
31717;BME280;18301;51.076;17.046;2023-02-21T17:27:55;99987.06;;;10.53;74.39
31717;BME280;18301;51.076;17.046;2023-02-21T17:32:56;100002.78;;;10.48;74.78
31717;BME280;18301;51.076;17.046;2023-02-21T17:37:58;100006.81;;;10.42;74.93
31717;BME280;18301;51.076;17.046;2023-02-21T17:43:02;100008.63;;;10.30;76.27
31717;BME280;18301;51.076;17.046;2023-02-21T17:48:09;100014.53;;;10.35;75.82
31717;BME280;18301;51.076;17.046;2023-02-21T17:53:10;100018.47;;;10.31;76.52
31717;BME280;18301;51.076;17.046;2023-02-21T17:58:12;100021.78;;;10.35;76.46
31717;BME280;18301;51.076;17.046;2023-02-21T18:03:13;100033.69;;;10.44;76.06
31717;BME280;18301;51.076;17.046;2023-02-21T18:08:15;100025.03;;;10.16;77.49
31717;BME280;18301;51.076;17.046;2023-02-21T18:13:21;100029.81;;;10.24;77.30
31717;BME280;18301;51.076;17.046;2023-02-21T18:18:22;100028.69;;;10.04;78.18
31717;BME280;18301;51.076;17.046;2023-02-21T18:23:28;100036.59;;;10.29;77.36
31717;BME280;18301;51.076;17.046;2023-02-21T18:28:30;100047.63;;;10.26;77.96
31717;BME280;18301;51.076;17.046;2023-02-21T18:33:32;100054.13;;;10.35;77.74
31717;BME280;18301;51.076;17.046;2023-02-21T18:38:33;100042.75;;;10.31;77.91
31717;BME280;18301;51.076;17.046;2023-02-21T18:43:35;100053.53;;;10.31;78.07
31717;BME280;18301;51.076;17.046;2023-02-21T18:48:37;100060.56;;;10.10;78.09
31717;BME280;18301;51.076;17.046;2023-02-21T18:53:45;100054.19;;;10.11;78.73
31717;BME280;18301;51.076;17.046;2023-02-21T18:58:47;100061.56;;;10.20;77.95
31717;BME280;18301;51.076;17.046;2023-02-21T19:03:50;100058.53;;;9.89;78.82
31717;BME280;18301;51.076;17.046;2023-02-21T19:08:52;100064.06;;;9.99;78.28
31717;BME280;18301;51.076;17.046;2023-02-21T19:13:54;100069.78;;;9.83;78.90
31717;BME280;18301;51.076;17.046;2023-02-21T19:18:56;100069.72;;;9.72;79.65
31717;BME280;18301;51.076;17.046;2023-02-21T19:23:58;100084.84;;;9.86;79.02
31717;BME280;18301;51.076;17.046;2023-02-21T19:29:00;100093.50;;;9.78;78.75
31717;BME280;18301;51.076;17.046;2023-02-21T19:34:02;100093.69;;;9.64;78.38
31717;BME280;18301;51.076;17.046;2023-02-21T19:39:04;100100.78;;;9.65;78.37
31717;BME280;18301;51.076;17.046;2023-02-21T19:44:06;100104.81;;;9.83;76.89
31717;BME280;18301;51.076;17.046;2023-02-21T19:49:12;100101.78;;;9.64;74.74
31717;BME280;18301;51.076;17.046;2023-02-21T19:54:22;100105.66;;;9.84;73.95
31717;BME280;18301;51.076;17.046;2023-02-21T19:59:31;100105.56;;;9.85;72.15
31717;BME280;18301;51.076;17.046;2023-02-21T20:04:34;100113.91;;;9.69;70.23
31717;BME280;18301;51.076;17.046;2023-02-21T20:09:35;100119.44;;;9.68;68.55
31717;BME280;18301;51.076;17.046;2023-02-21T20:14:37;100129.63;;;9.52;68.44
31717;BME280;18301;51.076;17.046;2023-02-21T20:19:40;100121.38;;;9.66;68.07
31717;BME280;18301;51.076;17.046;2023-02-21T20:24:42;100127.84;;;9.63;67.41
31717;BME280;18301;51.076;17.046;2023-02-21T20:29:46;100129.81;;;9.85;67.83
31717;BME280;18301;51.076;17.046;2023-02-21T20:34:48;100138.38;;;9.66;68.67
31717;BME280;18301;51.076;17.046;2023-02-21T20:39:54;100145.22;;;9.83;67.92
31717;BME280;18301;51.076;17.046;2023-02-21T20:44:55;100139.50;;;9.64;67.47
31717;BME280;18301;51.076;17.046;2023-02-21T20:49:57;100152.63;;;9.68;68.13
31717;BME280;18301;51.076;17.046;2023-02-21T20:54:59;100152.56;;;9.81;68.35
31717;BME280;18301;51.076;17.046;2023-02-21T21:00:03;100153.25;;;9.72;69.16
31717;BME280;18301;51.076;17.046;2023-02-21T21:05:09;100147.06;;;9.59;68.50
31717;BME280;18301;51.076;17.046;2023-02-21T21:10:14;100145.75;;;9.64;68.66
31717;BME280;18301;51.076;17.046;2023-02-21T21:15:18;100144.00;;;9.63;69.02
31717;BME280;18301;51.076;17.046;2023-02-21T21:20:22;100150.53;;;9.48;69.17
31717;BME280;18301;51.076;17.046;2023-02-21T21:25:23;100161.19;;;9.50;69.64
31717;BME280;18301;51.076;17.046;2023-02-21T21:30:26;100156.56;;;9.52;69.33
31717;BME280;18301;51.076;17.046;2023-02-21T21:35:28;100165.38;;;9.54;69.00
31717;BME280;18301;51.076;17.046;2023-02-21T21:40:30;100177.25;;;9.38;69.52
31717;BME280;18301;51.076;17.046;2023-02-21T21:45:32;100180.09;;;9.37;69.09
31717;BME280;18301;51.076;17.046;2023-02-21T21:50:44;100182.47;;;9.16;69.81
31717;BME280;18301;51.076;17.046;2023-02-21T21:55:45;100184.50;;;9.25;70.33
31717;BME280;18301;51.076;17.046;2023-02-21T22:00:47;100191.09;;;9.21;70.05
31717;BME280;18301;51.076;17.046;2023-02-21T22:05:49;100184.19;;;9.17;70.64
31717;BME280;18301;51.076;17.046;2023-02-21T22:10:51;100184.41;;;9.14;71.16
31717;BME280;18301;51.076;17.046;2023-02-21T22:15:53;100182.69;;;9.13;71.04
31717;BME280;18301;51.076;17.046;2023-02-21T22:20:55;100182.38;;;9.05;71.70
31717;BME280;18301;51.076;17.046;2023-02-21T22:25:57;100184.84;;;9.08;71.74
31717;BME280;18301;51.076;17.046;2023-02-21T22:30:59;100191.34;;;9.05;71.80
31717;BME280;18301;51.076;17.046;2023-02-21T22:36:00;100193.91;;;9.07;72.11
31717;BME280;18301;51.076;17.046;2023-02-21T22:41:05;100194.13;;;9.04;72.43
31717;BME280;18301;51.076;17.046;2023-02-21T22:46:06;100199.41;;;9.05;72.72
31717;BME280;18301;51.076;17.046;2023-02-21T22:51:08;100200.56;;;9.01;72.93
31717;BME280;18301;51.076;17.046;2023-02-21T22:56:11;100200.16;;;8.94;73.42
31717;BME280;18301;51.076;17.046;2023-02-21T23:01:15;100200.16;;;8.94;74.17
31717;BME280;18301;51.076;17.046;2023-02-21T23:06:21;100201.22;;;8.92;74.60
31717;BME280;18301;51.076;17.046;2023-02-21T23:11:23;100204.69;;;8.81;75.02
31717;BME280;18301;51.076;17.046;2023-02-21T23:16:24;100201.00;;;8.82;75.62
31717;BME280;18301;51.076;17.046;2023-02-21T23:21:28;100205.97;;;8.88;75.67
31717;BME280;18301;51.076;17.046;2023-02-21T23:26:30;100214.13;;;8.74;75.99
31717;BME280;18301;51.076;17.046;2023-02-21T23:31:32;100217.44;;;8.65;76.02
31717;BME280;18301;51.076;17.046;2023-02-21T23:36:34;100218.63;;;8.61;76.37
31717;BME280;18301;51.076;17.046;2023-02-21T23:41:40;100223.16;;;8.60;76.14
31717;BME280;18301;51.076;17.046;2023-02-21T23:46:43;100226.34;;;8.52;76.30
31717;BME280;18301;51.076;17.046;2023-02-21T23:51:45;100232.06;;;8.21;78.24
31717;BME280;18301;51.076;17.046;2023-02-21T23:56:47;100223.59;;;8.00;77.81
